Ridgeland, Wisconsin
Current Conditions -  °F | °C
As of 8:55 PM on Friday 21 Nov 2014 (Local Time) from KY23 Reporting Station
Scattered Clouds Scattered Clouds  
Wind Chill: 17°   Ceiling: Unl
Heat Index: 25°   Visibility: 10mi
Dew Point: 16°   Wind: 7mph
Humidity: 68%   Direction: 140°SE
Pressure: 29.93"   Gusts: NA
Location:  45.2°N, 91.9°W
Report Text: KY23 220255Z AUTO 14006KT 10SM SCT019 M04/M09 A2993 RMK AO2 T10401091
Loading
Personal Weather Stations






























Interactive Weather Map New forecast layout! Learn more

10-Day Weather Forecast

Advertisements
Track Severe Weather on mobile